createdAt,value
2022-08-08T00:00:52.851Z,2.22
2022-08-08T00:03:31.585Z,2.17
2022-08-08T00:06:49.919Z,2.37
2022-08-08T00:10:14.204Z,1.92
2022-08-08T00:14:12.188Z,1.98
2022-08-08T00:17:23.334Z,2.00
2022-08-08T00:20:37.186Z,1.77
2022-08-08T00:23:47.759Z,1.50
2022-08-08T00:26:58.756Z,1.60
2022-08-08T00:30:15.803Z,1.33
2022-08-08T00:33:29.147Z,1.70
2022-08-08T00:37:03.608Z,1.50
2022-08-08T00:41:12.842Z,1.23
2022-08-08T00:44:00.686Z,1.60
2022-08-08T00:48:05.576Z,1.30
2022-08-08T00:51:16.043Z,1.15
2022-08-08T00:54:36.378Z,1.30
2022-08-08T00:57:57.140Z,1.47
2022-08-08T01:01:11.459Z,1.30
2022-08-08T01:05:42.580Z,1.20
2022-08-08T01:09:36.373Z,1.20
2022-08-08T01:12:59.468Z,1.30
2022-08-08T01:16:39.152Z,1.20
2022-08-08T01:20:13.646Z,1.20
2022-08-08T01:24:05.913Z,1.10
2022-08-08T01:27:33.059Z,1.15
2022-08-08T01:32:06.824Z,1.20
2022-08-08T01:35:30.199Z,1.00
2022-08-08T01:38:56.101Z,1.10
2022-08-08T01:42:17.800Z,1.08
2022-08-08T01:45:50.275Z,1.08
2022-08-08T01:49:10.999Z,0.93
2022-08-08T01:53:09.318Z,1.17
2022-08-08T01:56:34.097Z,1.10
2022-08-08T02:00:12.899Z,1.00
2022-08-08T02:03:58.786Z,1.10
2022-08-08T02:07:16.685Z,1.10
2022-08-08T02:10:45.070Z,1.27
2022-08-08T02:13:53.924Z,1.10
2022-08-08T02:17:20.377Z,0.93
2022-08-08T02:21:13.000Z,1.00
2022-08-08T02:24:56.357Z,1.00
2022-08-08T02:28:52.400Z,0.80
2022-08-08T02:32:15.817Z,1.10
2022-08-08T02:36:05.279Z,0.73
2022-08-08T02:39:40.545Z,0.80
2022-08-08T02:44:37.904Z,1.00
2022-08-08T02:46:52.269Z,1.05
2022-08-08T02:50:17.736Z,1.00
2022-08-08T02:53:36.822Z,0.98
2022-08-08T02:57:16.990Z,0.88
2022-08-08T03:00:51.022Z,0.95
2022-08-08T03:05:03.996Z,0.90
2022-08-08T03:08:11.965Z,0.93
2022-08-08T03:12:01.674Z,1.20
2022-08-08T03:16:00.542Z,0.80
2022-08-08T03:18:54.843Z,1.00
2022-08-08T03:22:00.026Z,0.98
2022-08-08T03:25:17.781Z,0.93
2022-08-08T03:28:32.326Z,1.08
2022-08-08T03:32:06.286Z,1.15
2022-08-08T03:35:11.444Z,0.82
2022-08-08T03:38:56.983Z,1.00
2022-08-08T03:42:27.322Z,0.83
2022-08-08T03:46:05.006Z,1.13
2022-08-08T03:49:15.286Z,0.80
2022-08-08T03:52:17.978Z,1.00
2022-08-08T03:55:56.201Z,1.00
2022-08-08T03:58:52.916Z,0.73
2022-08-08T04:02:13.108Z,0.75
2022-08-08T04:05:19.549Z,1.10
2022-08-08T04:08:33.799Z,0.68
2022-08-08T04:11:48.405Z,1.00
2022-08-08T04:15:13.113Z,0.80
2022-08-08T04:18:16.611Z,0.98
2022-08-08T04:21:23.194Z,0.80
2022-08-08T04:24:31.982Z,0.68
2022-08-08T04:28:02.599Z,0.70
2022-08-08T04:31:04.555Z,1.00
2022-08-08T04:34:08.847Z,0.98
2022-08-08T04:37:12.246Z,0.90
2022-08-08T04:40:17.891Z,0.90
2022-08-08T04:43:32.023Z,1.00
2022-08-08T04:46:53.422Z,0.60
2022-08-08T04:50:01.420Z,1.00
2022-08-08T04:53:14.303Z,0.88
2022-08-08T04:56:35.085Z,0.80
2022-08-08T04:59:42.009Z,0.80
2022-08-08T05:02:48.914Z,0.80
2022-08-08T05:05:56.883Z,0.88
2022-08-08T05:09:02.470Z,0.80
2022-08-08T05:12:09.546Z,0.93
2022-08-08T05:15:23.524Z,0.90
2022-08-08T05:18:34.907Z,0.70
2022-08-08T05:21:43.730Z,0.77
2022-08-08T05:25:00.966Z,0.80
2022-08-08T05:28:05.034Z,1.00
2022-08-08T05:31:30.749Z,1.00
2022-08-08T05:34:43.467Z,0.93
2022-08-08T05:38:04.675Z,0.80
2022-08-08T05:41:29.057Z,0.80
2022-08-08T05:44:49.085Z,0.73
2022-08-08T05:48:00.731Z,0.90
2022-08-08T05:51:14.708Z,0.80
2022-08-08T05:54:28.708Z,0.90
2022-08-08T05:58:04.964Z,1.13
2022-08-08T06:01:11.485Z,0.70
2022-08-08T06:04:23.619Z,0.82
2022-08-08T06:07:32.471Z,0.97
2022-08-08T06:10:40.797Z,0.70
2022-08-08T06:13:49.305Z,0.90
2022-08-08T06:16:58.966Z,0.80
2022-08-08T06:20:13.699Z,0.70
2022-08-08T06:23:29.166Z,0.63
2022-08-08T06:26:52.487Z,0.80
2022-08-08T06:30:19.943Z,0.65
2022-08-08T06:34:26.334Z,0.75
2022-08-08T06:37:24.128Z,0.80
2022-08-08T06:40:39.544Z,0.87
2022-08-08T06:44:01.715Z,1.02
2022-08-08T06:47:10.107Z,1.08
2022-08-08T06:50:17.586Z,0.90
2022-08-08T06:53:39.875Z,0.90
2022-08-08T06:56:55.258Z,0.70
2022-08-08T07:00:10.138Z,1.02
2022-08-08T07:03:51.963Z,0.70
2022-08-08T07:06:55.872Z,0.70
2022-08-08T07:10:08.189Z,0.85
2022-08-08T07:13:25.397Z,0.83
2022-08-08T07:16:51.067Z,0.90
2022-08-08T07:20:05.033Z,0.73
2022-08-08T07:23:28.793Z,0.80
2022-08-08T07:26:53.912Z,0.80
2022-08-08T07:30:05.851Z,0.77
2022-08-08T07:33:17.373Z,0.80
2022-08-08T07:36:22.570Z,0.90
2022-08-08T07:39:35.461Z,0.60
2022-08-08T07:42:54.170Z,0.65
2022-08-08T07:46:18.403Z,0.70
2022-08-08T07:49:21.602Z,0.70
2022-08-08T07:52:26.987Z,0.80
2022-08-08T07:55:36.522Z,1.00
2022-08-08T07:58:43.693Z,0.93
2022-08-08T08:02:35.104Z,0.70
2022-08-08T08:05:33.335Z,0.70
2022-08-08T08:08:52.231Z,0.70
2022-08-08T08:12:00.028Z,0.60
2022-08-08T08:15:11.967Z,0.80
2022-08-08T08:18:32.336Z,0.70
2022-08-08T08:21:57.790Z,0.70
2022-08-08T08:25:42.791Z,0.70
2022-08-08T08:28:49.867Z,0.82
2022-08-08T08:31:57.560Z,0.80
2022-08-08T08:35:03.471Z,0.90
2022-08-08T08:38:18.007Z,0.70
2022-08-08T08:41:27.906Z,1.00
2022-08-08T08:44:34.273Z,0.80
2022-08-08T08:47:44.964Z,0.90
2022-08-08T08:50:52.064Z,0.70
2022-08-08T08:53:59.911Z,0.80
2022-08-08T08:57:17.269Z,0.73
2022-08-08T09:00:24.755Z,0.77
2022-08-08T09:03:31.518Z,1.15
2022-08-08T09:06:56.982Z,0.90
2022-08-08T09:10:01.148Z,0.60
2022-08-08T09:13:17.641Z,0.80
2022-08-08T09:16:29.599Z,0.98
2022-08-08T09:21:57.183Z,1.02
2022-08-08T09:23:00.856Z,0.70
2022-08-08T09:26:09.502Z,0.90
2022-08-08T09:29:26.857Z,0.80
2022-08-08T09:33:01.358Z,0.80
2022-08-08T09:36:07.574Z,0.73
2022-08-08T09:39:19.096Z,0.90
2022-08-08T09:42:26.038Z,0.90
2022-08-08T09:46:01.918Z,0.70
2022-08-08T09:49:18.072Z,0.90
2022-08-08T09:52:59.332Z,0.98
2022-08-08T09:56:04.600Z,1.00
2022-08-08T09:59:39.749Z,1.05
2022-08-08T10:02:40.151Z,1.20
2022-08-08T10:05:46.877Z,1.10
2022-08-08T10:08:50.884Z,0.82
2022-08-08T10:12:26.401Z,1.20
2022-08-08T10:15:18.004Z,1.00
2022-08-08T10:18:35.549Z,1.00
2022-08-08T10:21:42.667Z,1.00
2022-08-08T10:25:00.110Z,0.93
2022-08-08T10:28:06.065Z,1.00
2022-08-08T10:31:47.274Z,1.20
2022-08-08T10:34:58.440Z,1.20
2022-08-08T10:38:07.894Z,1.17
2022-08-08T10:41:17.488Z,1.30
2022-08-08T10:44:40.299Z,1.20
2022-08-08T10:47:48.768Z,1.17
2022-08-08T10:50:57.956Z,1.02
2022-08-08T10:54:02.220Z,1.20
2022-08-08T10:57:05.598Z,1.25
2022-08-08T11:00:13.260Z,1.10
2022-08-08T11:03:36.378Z,1.00
2022-08-08T11:06:41.791Z,1.33
2022-08-08T11:09:50.178Z,1.15
2022-08-08T11:13:25.493Z,1.02
2022-08-08T11:16:32.165Z,1.30
2022-08-08T11:19:36.734Z,1.30
2022-08-08T11:22:42.322Z,1.23
2022-08-08T11:25:53.221Z,1.20
2022-08-08T11:29:03.477Z,1.20
2022-08-08T11:32:07.797Z,1.17
2022-08-08T11:35:24.905Z,1.10
2022-08-08T11:38:35.632Z,1.30
2022-08-08T11:41:43.288Z,1.35
2022-08-08T11:44:46.406Z,1.42
2022-08-08T11:48:02.684Z,1.20
2022-08-08T11:51:29.563Z,1.48
2022-08-08T11:54:38.167Z,1.23
2022-08-08T11:57:51.679Z,1.60
2022-08-08T12:00:58.617Z,1.40
2022-08-08T12:04:04.802Z,1.50
2022-08-08T12:07:16.638Z,1.63
2022-08-08T12:10:28.227Z,1.67
2022-08-08T12:13:37.682Z,1.90
2022-08-08T12:16:54.068Z,1.40
2022-08-08T12:19:57.180Z,1.60
2022-08-08T12:23:00.313Z,1.80
2022-08-08T12:26:16.875Z,1.75
2022-08-08T12:29:40.240Z,1.80
2022-08-08T12:32:45.790Z,1.80
2022-08-08T12:35:52.537Z,1.70
2022-08-08T12:38:55.868Z,1.90
2022-08-08T12:42:01.828Z,2.20
2022-08-08T12:45:53.961Z,2.00
2022-08-08T12:48:37.362Z,1.88
2022-08-08T12:51:50.150Z,1.97
2022-08-08T12:55:13.654Z,2.08
2022-08-08T12:58:19.520Z,2.22
2022-08-08T13:01:37.592Z,2.30
2022-08-08T13:04:51.119Z,2.10
2022-08-08T13:08:03.950Z,1.83
2022-08-08T13:11:24.659Z,2.00
2022-08-08T13:14:53.303Z,1.92
2022-08-08T13:18:09.873Z,2.13
2022-08-08T13:21:16.448Z,2.22
2022-08-08T13:24:38.528Z,2.27
2022-08-08T13:27:42.207Z,2.40
2022-08-08T13:30:45.321Z,1.98
2022-08-08T13:33:50.093Z,2.28
2022-08-08T13:36:56.196Z,2.53
2022-08-08T13:40:04.784Z,2.50
2022-08-08T13:43:07.956Z,2.22
2022-08-08T13:46:26.433Z,2.63
2022-08-08T13:50:35.590Z,2.50
2022-08-08T13:52:55.060Z,2.63
2022-08-08T13:56:02.384Z,2.60
2022-08-08T13:59:05.156Z,2.20
2022-08-08T14:02:35.026Z,2.20
2022-08-08T14:05:57.714Z,2.40
2022-08-08T14:09:24.244Z,2.40
2022-08-08T14:12:34.519Z,2.37
2022-08-08T14:15:39.779Z,2.60
2022-08-08T14:19:10.503Z,2.65
2022-08-08T14:22:22.522Z,2.50
2022-08-08T14:25:26.370Z,2.50
2022-08-08T14:28:29.844Z,2.60
2022-08-08T14:32:05.963Z,2.40
2022-08-08T14:34:57.284Z,2.53
2022-08-08T14:38:09.411Z,2.80
2022-08-08T14:41:45.554Z,2.53
2022-08-08T14:45:10.094Z,2.77
2022-08-08T14:48:12.757Z,3.10
2022-08-08T14:51:19.953Z,2.67
2022-08-08T14:54:28.715Z,2.95
2022-08-08T14:58:03.147Z,3.15
2022-08-08T15:00:54.499Z,3.33
2022-08-08T15:04:08.935Z,3.10
2022-08-08T15:07:21.429Z,3.05
2022-08-08T15:10:28.895Z,3.10
2022-08-08T15:13:40.148Z,3.35
2022-08-08T15:16:55.274Z,3.20
2022-08-08T15:19:59.566Z,3.03
2022-08-08T15:23:03.573Z,3.00
2022-08-08T15:26:09.611Z,2.85
2022-08-08T15:29:15.100Z,3.00
2022-08-08T15:32:20.188Z,2.70
2022-08-08T15:35:23.447Z,2.83
2022-08-08T15:38:27.891Z,3.08
2022-08-08T15:41:43.400Z,3.10
2022-08-08T15:44:46.544Z,3.22
2022-08-08T15:48:15.377Z,3.20
2022-08-08T15:51:11.722Z,3.35
2022-08-08T15:54:38.974Z,3.20
2022-08-08T15:57:42.494Z,3.45
2022-08-08T16:00:50.336Z,3.42
2022-08-08T16:03:53.025Z,3.33
2022-08-08T16:06:56.123Z,3.30
2022-08-08T16:13:05.370Z,3.10
2022-08-08T16:13:30.487Z,2.55
2022-08-08T16:16:44.537Z,2.60
2022-08-08T16:19:59.726Z,2.73
2022-08-08T16:23:04.295Z,2.72
2022-08-08T16:26:17.358Z,2.60
2022-08-08T16:29:36.987Z,2.38
2022-08-08T16:32:39.959Z,2.67
2022-08-08T16:35:49.824Z,2.50
2022-08-08T16:38:53.976Z,2.78
2022-08-08T16:42:01.387Z,2.65
2022-08-08T16:45:11.495Z,2.83
2022-08-08T16:48:32.215Z,2.85
2022-08-08T16:55:04.914Z,3.10
2022-08-08T16:55:42.844Z,3.22
2022-08-08T16:58:31.635Z,3.67
2022-08-08T17:01:39.782Z,3.53
2022-08-08T17:04:42.265Z,3.85
2022-08-08T17:07:51.179Z,3.70
2022-08-08T17:10:59.439Z,3.90
2022-08-08T17:14:19.165Z,3.80
2022-08-08T17:17:41.871Z,3.72
2022-08-08T17:20:44.682Z,3.67
2022-08-08T17:23:58.027Z,3.50
2022-08-08T17:27:04.968Z,3.88
2022-08-08T17:30:14.865Z,3.30
2022-08-08T17:34:36.684Z,3.15
2022-08-08T17:37:02.853Z,3.10
2022-08-08T17:40:14.830Z,3.03
2022-08-08T17:43:17.742Z,2.85
2022-08-08T17:46:41.763Z,3.00
2022-08-08T17:49:46.090Z,3.50
2022-08-08T17:52:53.711Z,3.53
2022-08-08T17:56:07.154Z,3.43
2022-08-08T17:59:10.426Z,3.20
2022-08-08T18:02:16.374Z,3.40
2022-08-08T18:05:23.195Z,3.17
2022-08-08T18:08:38.708Z,2.70
2022-08-08T18:11:49.099Z,2.57
2022-08-08T18:14:53.763Z,3.00
2022-08-08T18:18:09.514Z,2.88
2022-08-08T18:21:24.921Z,2.92
2022-08-08T18:24:37.563Z,3.50
2022-08-08T18:27:43.181Z,2.97
2022-08-08T18:30:47.353Z,3.30
2022-08-08T18:34:26.049Z,3.10
2022-08-08T18:37:17.751Z,3.00
2022-08-08T18:40:36.067Z,3.10
2022-08-08T18:43:43.153Z,2.90
2022-08-08T18:46:55.506Z,3.13
2022-08-08T18:50:02.493Z,3.15
2022-08-08T18:53:05.277Z,3.15
2022-08-08T18:56:07.916Z,3.20
2022-08-08T18:59:11.515Z,3.07
2022-08-08T19:02:29.084Z,3.30
2022-08-08T19:05:38.405Z,3.45
2022-08-08T19:08:46.733Z,3.85
2022-08-08T19:11:51.323Z,3.58
2022-08-08T19:14:57.127Z,3.63
2022-08-08T19:18:33.655Z,3.70
2022-08-08T19:21:30.956Z,3.58
2022-08-08T19:24:53.589Z,3.70
2022-08-08T19:27:59.722Z,3.42
2022-08-08T19:31:07.287Z,3.17
2022-08-08T19:34:36.408Z,3.20
2022-08-08T19:37:43.364Z,3.30
2022-08-08T19:40:55.903Z,3.38
2022-08-08T19:44:03.014Z,3.55
2022-08-08T19:47:06.917Z,3.60
2022-08-08T19:50:12.554Z,3.75
2022-08-08T19:53:51.674Z,3.42
2022-08-08T19:56:41.657Z,3.92
2022-08-08T19:59:51.536Z,4.70
2022-08-08T20:02:53.890Z,4.33
2022-08-08T20:06:14.970Z,4.07
2022-08-08T20:09:22.856Z,4.22
2022-08-08T20:12:32.206Z,4.40
2022-08-08T20:16:00.252Z,4.40
2022-08-08T20:19:00.107Z,4.17
2022-08-08T20:22:05.151Z,4.60
2022-08-08T20:25:20.254Z,4.00
2022-08-08T20:28:32.281Z,4.32
2022-08-08T20:32:02.875Z,3.83
2022-08-08T20:35:01.038Z,3.87
2022-08-08T20:38:04.047Z,3.85
2022-08-08T20:41:17.469Z,3.80
2022-08-08T20:44:21.808Z,3.88
2022-08-08T20:47:36.110Z,3.58
2022-08-08T20:50:38.779Z,3.47
2022-08-08T20:54:00.959Z,3.80
2022-08-08T20:57:18.816Z,3.60
2022-08-08T21:00:23.580Z,3.97
2022-08-08T21:03:29.722Z,4.00
2022-08-08T21:06:52.435Z,3.70
2022-08-08T21:10:07.913Z,3.85
2022-08-08T21:13:14.580Z,3.63
2022-08-08T21:16:20.565Z,3.70
2022-08-08T21:19:34.068Z,3.63
2022-08-08T21:22:50.038Z,3.50
2022-08-08T21:25:54.971Z,3.40
2022-08-08T21:29:02.226Z,3.05
2022-08-08T21:32:07.688Z,3.40
2022-08-08T21:36:16.192Z,3.33
2022-08-08T21:38:39.174Z,2.70
2022-08-08T21:41:42.944Z,3.10
2022-08-08T21:44:58.450Z,2.88
2022-08-08T21:48:19.969Z,3.20
2022-08-08T21:54:18.711Z,2.95
2022-08-08T21:54:54.305Z,3.20
2022-08-08T21:58:05.491Z,2.97
2022-08-08T22:01:22.446Z,2.72
2022-08-08T22:04:30.447Z,3.15
2022-08-08T22:07:39.724Z,3.15
2022-08-08T22:10:45.207Z,3.00
2022-08-08T22:13:51.822Z,2.78
2022-08-08T22:16:54.633Z,3.03
2022-08-08T22:20:10.534Z,2.67
2022-08-08T22:23:15.663Z,2.95
2022-08-08T22:26:29.834Z,3.20
2022-08-08T22:30:01.161Z,3.00
2022-08-08T22:32:55.515Z,3.05
2022-08-08T22:36:05.694Z,2.92
2022-08-08T22:39:19.425Z,2.92
2022-08-08T22:42:23.919Z,2.60
2022-08-08T22:45:29.626Z,2.70
2022-08-08T22:48:38.819Z,2.92
2022-08-08T22:51:46.591Z,2.60
2022-08-08T22:54:58.845Z,3.10
2022-08-08T22:58:07.038Z,2.63
2022-08-08T23:01:26.738Z,2.75
2022-08-08T23:04:34.649Z,2.60
2022-08-08T23:07:51.886Z,2.50
2022-08-08T23:11:05.850Z,2.88
2022-08-08T23:14:11.374Z,2.47
2022-08-08T23:17:14.425Z,2.70
2022-08-08T23:20:19.820Z,2.72
2022-08-08T23:23:22.913Z,2.30
2022-08-08T23:26:25.330Z,2.58
2022-08-08T23:29:29.751Z,2.50
2022-08-08T23:32:33.850Z,2.75
2022-08-08T23:36:07.574Z,2.72
2022-08-08T23:38:59.261Z,2.50
2022-08-08T23:42:06.571Z,2.40
2022-08-08T23:45:12.603Z,2.50
2022-08-08T23:49:04.182Z,2.28
2022-08-08T23:52:03.655Z,2.58
2022-08-08T23:55:14.304Z,2.50
2022-08-08T23:58:31.809Z,2.40
